createdAt,value
2019-04-22T00:02:28.519Z,101285.98
2019-04-22T00:05:11.597Z,101288.19
2019-04-22T00:07:56.800Z,101286.20
2019-04-22T00:10:32.740Z,101281.49
2019-04-22T00:13:27.599Z,101283.51
2019-04-22T00:15:32.547Z,101281.55
2019-04-22T00:18:14.044Z,101285.70
2019-04-22T00:20:48.394Z,101287.22
2019-04-22T00:23:12.821Z,101289.81
2019-04-22T00:25:49.420Z,101288.47
2019-04-22T00:28:22.611Z,101287.14
2019-04-22T00:30:54.846Z,101285.64
2019-04-22T00:33:26.678Z,101284.27
2019-04-22T00:35:55.214Z,101287.23
2019-04-22T00:38:31.518Z,101286.86
2019-04-22T00:41:05.873Z,101297.23
2019-04-22T00:43:45.813Z,101296.38
2019-04-22T00:46:15.633Z,101302.08
2019-04-22T00:48:48.647Z,101296.70
2019-04-22T00:51:22.914Z,101292.41
2019-04-22T00:53:48.095Z,101299.33
2019-04-22T00:56:20.207Z,101298.34
2019-04-22T00:58:50.302Z,101295.31
2019-04-22T01:06:25.712Z,101298.52
2019-04-22T01:11:44.597Z,101294.48
2019-04-22T01:14:09.287Z,101293.66
2019-04-22T01:16:42.929Z,101291.00
2019-04-22T01:19:16.664Z,101288.12
2019-04-22T01:21:46.133Z,101298.77
2019-04-22T01:24:16.786Z,101301.23
2019-04-22T01:26:50.533Z,101310.52
2019-04-22T01:29:21.603Z,101305.78
2019-04-22T01:31:41.798Z,101305.73
2019-04-22T01:34:32.171Z,101301.78
2019-04-22T01:37:09.894Z,101302.11
2019-04-22T01:39:45.527Z,101308.92
2019-04-22T01:42:16.821Z,101294.36
2019-04-22T01:45:06.970Z,101302.86
2019-04-22T01:47:26.649Z,101307.82
2019-04-22T01:49:55.517Z,101308.48
2019-04-22T01:52:31.403Z,101310.67
2019-04-22T01:55:07.328Z,101310.63
2019-04-22T01:57:38.522Z,101317.70
2019-04-22T02:00:00.843Z,101313.01
2019-04-22T02:02:42.354Z,101310.98
2019-04-22T02:05:19.120Z,101310.72
2019-04-22T02:07:42.125Z,101313.95
2019-04-22T02:10:26.927Z,101310.16
2019-04-22T02:12:53.216Z,101316.73
2019-04-22T02:15:24.007Z,101310.31
2019-04-22T02:18:04.366Z,101309.42
2019-04-22T02:20:29.603Z,101308.24
2019-04-22T02:26:02.034Z,101309.06
2019-04-22T02:38:59.458Z,101304.31
2019-04-22T02:41:26.604Z,101308.61
2019-04-22T03:04:12.251Z,101307.73
2019-04-22T03:09:20.658Z,101304.06
2019-04-22T03:12:00.914Z,101306.56
2019-04-22T03:14:37.942Z,101303.08
2019-04-22T03:17:11.406Z,101306.16
2019-04-22T03:19:43.368Z,101310.63
2019-04-22T03:27:02.806Z,101307.93
2019-04-22T03:30:22.149Z,101310.82
2019-04-22T03:32:59.325Z,101305.43
2019-04-22T03:37:48.154Z,101310.35
2019-04-22T03:42:52.008Z,101313.83
2019-04-22T03:47:54.046Z,101319.09
2019-04-22T03:50:24.333Z,101315.42
2019-04-22T03:52:56.427Z,101319.23
2019-04-22T04:05:41.642Z,101301.80
2019-04-22T04:08:22.059Z,101303.25
2019-04-22T04:10:39.719Z,101305.16
2019-04-22T04:15:42.658Z,101300.76
2019-04-22T04:18:29.618Z,101300.16
2019-04-22T04:21:09.124Z,101309.34
2019-04-22T04:23:30.855Z,101306.02
2019-04-22T04:26:00.893Z,101299.41
2019-04-22T04:31:05.854Z,101304.09
2019-04-22T04:33:43.879Z,101300.53
2019-04-22T04:36:11.600Z,101300.80
2019-04-22T04:46:30.628Z,101314.44
2019-04-22T04:53:58.293Z,101318.11
2019-04-22T04:56:33.287Z,101317.84
2019-04-22T04:59:05.618Z,101319.34
2019-04-22T05:01:30.837Z,101313.91
2019-04-22T05:04:04.382Z,101318.45
2019-04-22T05:11:49.364Z,101316.16
2019-04-22T05:14:14.441Z,101309.24
2019-04-22T05:16:51.537Z,101308.77
2019-04-22T05:19:15.939Z,101311.12
2019-04-22T05:21:50.171Z,101307.08
2019-04-22T05:24:38.391Z,101310.27
2019-04-22T05:26:52.372Z,101315.05
2019-04-22T05:29:23.468Z,101315.91
2019-04-22T05:31:57.046Z,101322.91
2019-04-22T05:34:26.124Z,101317.14
2019-04-22T05:36:53.932Z,101318.98
2019-04-22T05:39:21.301Z,101319.46
2019-04-22T05:42:03.896Z,101328.03
2019-04-22T05:44:37.382Z,101339.78
2019-04-22T05:47:08.576Z,101334.98
2019-04-22T05:49:35.082Z,101333.02
2019-04-22T05:52:12.626Z,101334.90
2019-04-22T05:54:38.623Z,101337.00
2019-04-22T05:57:17.923Z,101343.77
2019-04-22T06:04:52.058Z,101348.67
2019-04-22T06:07:22.865Z,101342.72
2019-04-22T06:10:03.002Z,101341.41
2019-04-22T06:12:29.744Z,101339.08
2019-04-22T06:15:03.517Z,101329.59
2019-04-22T06:17:38.964Z,101326.38
2019-04-22T06:20:13.719Z,101329.32
2019-04-22T06:25:20.498Z,101335.21
2019-04-22T06:27:52.460Z,101328.44
2019-04-22T06:30:23.325Z,101332.09
2019-04-22T06:32:53.893Z,101322.32
2019-04-22T06:35:31.140Z,101331.71
2019-04-22T06:38:19.173Z,101327.20
2019-04-22T06:40:31.750Z,101336.05
2019-04-22T06:45:35.332Z,101341.02
2019-04-22T06:48:12.848Z,101349.79
2019-04-22T06:50:43.524Z,101349.45
2019-04-22T06:53:17.449Z,101343.97
2019-04-22T06:55:45.910Z,101335.80
2019-04-22T06:58:36.906Z,101343.64
2019-04-22T07:01:09.553Z,101339.73
2019-04-22T07:05:57.725Z,101339.47
2019-04-22T07:09:00.329Z,101341.00
2019-04-22T07:10:56.384Z,101337.58
2019-04-22T07:13:43.866Z,101334.77
2019-04-22T07:16:05.231Z,101340.92
2019-04-22T07:21:06.725Z,101338.86
2019-04-22T07:23:51.064Z,101341.36
2019-04-22T07:26:16.218Z,101353.33
2019-04-22T07:28:50.652Z,101348.39
2019-04-22T07:31:20.649Z,101357.12
2019-04-22T07:33:51.766Z,101352.08
2019-04-22T07:36:45.922Z,101356.43
2019-04-22T07:39:01.974Z,101356.52
2019-04-22T07:41:34.662Z,101368.94
2019-04-22T07:44:13.408Z,101371.16
2019-04-22T07:46:33.732Z,101362.65
2019-04-22T07:49:10.523Z,101364.58
2019-04-22T07:51:36.884Z,101367.25
2019-04-22T07:54:18.175Z,101357.77
2019-04-22T07:56:48.647Z,101363.45
2019-04-22T07:59:18.703Z,101355.96
2019-04-22T08:02:04.732Z,101359.16
2019-04-22T08:04:35.914Z,101355.46
2019-04-22T08:06:57.121Z,101353.80
2019-04-22T08:09:30.862Z,101355.96
2019-04-22T08:11:57.884Z,101352.37
2019-04-22T08:14:34.471Z,101360.52
2019-04-22T08:17:21.298Z,101358.02
2019-04-22T08:19:42.015Z,101368.55
2019-04-22T08:22:11.866Z,101367.88
2019-04-22T08:27:15.497Z,101372.36
2019-04-22T08:30:02.103Z,101379.66
2019-04-22T08:32:21.745Z,101378.30
2019-04-22T08:35:02.145Z,101377.19
2019-04-22T08:40:03.544Z,101381.48
2019-04-22T08:42:45.156Z,101385.20
2019-04-22T08:45:10.658Z,101374.36
2019-04-22T08:47:36.607Z,101379.58
2019-04-22T08:52:41.197Z,101388.95
2019-04-22T08:55:19.398Z,101387.45
2019-04-22T09:00:20.338Z,101392.84
2019-04-22T09:02:54.055Z,101399.45
2019-04-22T09:05:43.525Z,101404.33
2019-04-22T09:08:05.981Z,101401.19
2019-04-22T09:10:37.766Z,101401.05
2019-04-22T09:13:05.831Z,101390.74
2019-04-22T09:15:43.681Z,101408.42
2019-04-22T09:18:14.529Z,101405.61
2019-04-22T09:20:49.654Z,101410.84
2019-04-22T09:25:51.067Z,101406.70
2019-04-22T09:28:24.625Z,101404.58
2019-04-22T09:31:01.935Z,101406.37
2019-04-22T09:33:32.215Z,101406.63
2019-04-22T09:36:09.363Z,101406.09
2019-04-22T09:38:39.544Z,101409.12
2019-04-22T09:41:10.418Z,101414.28
2019-04-22T09:43:47.112Z,101413.45
2019-04-22T09:46:14.838Z,101409.35
2019-04-22T09:51:12.329Z,101396.95
2019-04-22T09:53:54.877Z,101403.40
2019-04-22T09:56:23.973Z,101401.12
2019-04-22T09:58:55.698Z,101400.19
2019-04-22T10:01:50.424Z,101408.22
2019-04-22T10:04:00.933Z,101398.78
2019-04-22T10:06:33.335Z,101393.72
2019-04-22T10:09:26.277Z,101402.78
2019-04-22T10:11:47.696Z,101387.92
2019-04-22T10:14:16.972Z,101385.06
2019-04-22T10:16:50.694Z,101389.63
2019-04-22T10:19:18.754Z,101381.08
2019-04-22T10:21:50.011Z,101385.86
2019-04-22T10:24:19.130Z,101382.33
2019-04-22T10:26:55.375Z,101372.11
2019-04-22T10:29:24.919Z,101375.14
2019-04-22T10:34:16.886Z,101391.64
2019-04-22T10:36:44.080Z,101370.99
2019-04-22T10:39:12.784Z,101383.14
2019-04-22T10:41:44.290Z,101376.97
2019-04-22T10:44:15.330Z,101385.18
2019-04-22T10:46:46.376Z,101381.16
2019-04-22T10:49:18.220Z,101375.57
2019-04-22T10:51:48.935Z,101384.77
2019-04-22T10:54:19.816Z,101391.97
2019-04-22T10:56:50.882Z,101385.41
2019-04-22T10:59:22.671Z,101367.08
2019-04-22T11:01:54.817Z,101358.87
2019-04-22T11:04:27.955Z,101365.34
2019-04-22T11:07:03.809Z,101364.17
2019-04-22T11:09:52.065Z,101360.75
2019-04-22T11:12:17.642Z,101350.81
2019-04-22T11:14:45.610Z,101357.12
2019-04-22T11:17:17.695Z,101366.91
2019-04-22T11:19:49.854Z,101366.23
2019-04-22T11:22:24.495Z,101360.88
2019-04-22T11:24:53.883Z,101345.26
2019-04-22T11:27:25.431Z,101362.46
2019-04-22T11:29:57.413Z,101361.41
2019-04-22T11:32:28.616Z,101362.55
2019-04-22T11:34:59.390Z,101357.43
2019-04-22T11:37:30.380Z,101366.76
2019-04-22T11:40:11.395Z,101363.44
2019-04-22T11:42:34.322Z,101356.48
2019-04-22T11:45:05.879Z,101360.93
2019-04-22T11:47:37.341Z,101356.83
2019-04-22T11:50:10.329Z,101361.50
2019-04-22T11:52:44.650Z,101356.41
2019-04-22T11:55:16.914Z,101343.88
2019-04-22T11:57:47.940Z,101338.69
2019-04-22T12:00:22.826Z,101342.88
2019-04-22T12:02:54.745Z,101344.47
2019-04-22T12:05:26.020Z,101345.30
2019-04-22T12:07:57.263Z,101347.91
2019-04-22T12:10:36.965Z,101341.55
2019-04-22T12:13:02.051Z,101328.39
2019-04-22T12:15:35.185Z,101329.88
2019-04-22T12:18:07.061Z,101331.98
2019-04-22T12:20:39.224Z,101331.98
2019-04-22T12:23:11.196Z,101337.77
2019-04-22T12:25:52.566Z,101329.83
2019-04-22T12:28:17.103Z,101335.70
2019-04-22T12:30:47.993Z,101334.75
2019-04-22T12:33:19.169Z,101330.91
2019-04-22T12:35:50.592Z,101327.67
2019-04-22T12:38:22.180Z,101313.50
2019-04-22T12:40:57.404Z,101323.14
2019-04-22T12:43:29.821Z,101315.89
2019-04-22T12:46:02.337Z,101316.38
2019-04-22T12:48:33.063Z,101316.46
2019-04-22T12:51:04.999Z,101318.42
2019-04-22T12:53:36.163Z,101303.86
2019-04-22T12:56:07.099Z,101309.35
2019-04-22T12:58:38.079Z,101303.11
2019-04-22T13:01:08.984Z,101301.30
2019-04-22T13:03:40.241Z,101300.24
2019-04-22T13:06:12.006Z,101294.80
2019-04-22T13:08:43.581Z,101288.46
2019-04-22T13:11:17.928Z,101287.85
2019-04-22T13:13:47.089Z,101283.25
2019-04-22T13:16:17.745Z,101276.29
2019-04-22T13:18:55.673Z,101278.47
2019-04-22T13:21:20.779Z,101276.93
2019-04-22T13:23:52.898Z,101273.78
2019-04-22T13:26:25.426Z,101278.77
2019-04-22T13:28:59.046Z,101279.77
2019-04-22T13:31:33.040Z,101264.05
2019-04-22T13:34:04.193Z,101263.92
2019-04-22T13:36:36.658Z,101265.47
2019-04-22T13:39:09.089Z,101262.34
2019-04-22T13:41:48.785Z,101269.98
2019-04-22T13:44:12.897Z,101277.28
2019-04-22T13:47:04.132Z,101265.52
2019-04-22T13:49:54.126Z,101258.81
2019-04-22T13:52:29.995Z,101261.22
2019-04-22T13:57:14.799Z,101245.23
2019-04-22T13:59:36.603Z,101244.22
2019-04-22T14:02:12.778Z,101256.11
2019-04-22T14:04:46.325Z,101251.06
2019-04-22T14:07:17.096Z,101253.27
2019-04-22T14:09:48.651Z,101248.95
2019-04-22T14:12:21.300Z,101255.59
2019-04-22T14:14:52.624Z,101246.14
2019-04-22T14:17:24.958Z,101241.68
2019-04-22T14:19:56.871Z,101240.64
2019-04-22T14:22:28.325Z,101231.95
2019-04-22T14:24:59.004Z,101237.23
2019-04-22T14:27:41.905Z,101235.62
2019-04-22T14:30:03.057Z,101238.65
2019-04-22T14:32:36.539Z,101227.36
2019-04-22T14:35:11.222Z,101226.62
2019-04-22T14:37:42.450Z,101223.17
2019-04-22T14:40:16.071Z,101213.41
2019-04-22T14:43:10.171Z,101216.28
2019-04-22T14:45:52.166Z,101213.73
2019-04-22T14:48:24.773Z,101217.27
2019-04-22T14:50:45.194Z,101222.55
2019-04-22T14:53:21.722Z,101216.40
2019-04-22T14:55:34.415Z,101208.69
2019-04-22T14:58:04.765Z,101222.80
2019-04-22T15:00:35.870Z,101205.80
2019-04-22T15:03:07.926Z,101209.46
2019-04-22T15:05:40.055Z,101203.91
2019-04-22T15:08:11.020Z,101201.48
2019-04-22T15:10:43.972Z,101202.31
2019-04-22T15:13:15.573Z,101191.95
2019-04-22T15:15:52.911Z,101192.70
2019-04-22T15:18:26.028Z,101179.97
2019-04-22T15:21:02.624Z,101182.57
2019-04-22T15:23:33.270Z,101179.93
2019-04-22T15:26:06.530Z,101182.67
2019-04-22T15:28:37.551Z,101182.25
2019-04-22T15:31:09.144Z,101181.92
2019-04-22T15:33:48.013Z,101177.91
2019-04-22T15:36:15.209Z,101174.59
2019-04-22T15:38:47.273Z,101173.41
2019-04-22T15:41:18.771Z,101173.07
2019-04-22T15:43:49.866Z,101167.29
2019-04-22T15:46:20.450Z,101159.23
2019-04-22T15:48:51.831Z,101164.86
2019-04-22T15:51:22.697Z,101163.71
2019-04-22T15:53:53.940Z,101171.77
2019-04-22T15:56:26.381Z,101164.41
2019-04-22T15:58:57.769Z,101168.74
2019-04-22T16:01:33.672Z,101167.38
2019-04-22T16:04:00.832Z,101165.48
2019-04-22T16:06:31.951Z,101163.15
2019-04-22T16:09:02.816Z,101165.03
2019-04-22T16:11:36.109Z,101166.18
2019-04-22T16:14:06.881Z,101155.97
2019-04-22T16:16:39.035Z,101160.37
2019-04-22T16:19:12.087Z,101155.22
2019-04-22T16:21:53.673Z,101152.11
2019-04-22T16:24:20.228Z,101154.63
2019-04-22T16:26:53.873Z,101155.20
2019-04-22T16:29:25.178Z,101153.27
2019-04-22T16:31:55.796Z,101151.24
2019-04-22T16:34:27.170Z,101146.08
2019-04-22T16:36:58.619Z,101140.59
2019-04-22T16:39:29.349Z,101151.41
2019-04-22T16:42:00.609Z,101137.74
2019-04-22T16:44:32.424Z,101138.48
2019-04-22T16:47:03.677Z,101152.93
2019-04-22T16:49:34.446Z,101152.86
2019-04-22T16:52:05.766Z,101151.86
2019-04-22T16:54:36.902Z,101146.30
2019-04-22T16:57:08.151Z,101154.55
2019-04-22T16:59:38.741Z,101150.48
2019-04-22T17:02:24.677Z,101153.25
2019-04-22T17:05:00.109Z,101150.69
2019-04-22T17:07:31.917Z,101165.09
2019-04-22T17:10:08.224Z,101164.97
2019-04-22T17:12:48.767Z,101167.48
2019-04-22T17:15:14.316Z,101163.23
2019-04-22T17:17:45.292Z,101156.78
2019-04-22T17:20:17.555Z,101160.09
2019-04-22T17:22:49.403Z,101167.97
2019-04-22T17:25:22.496Z,101166.47
2019-04-22T17:27:53.126Z,101162.23
2019-04-22T17:30:26.423Z,101161.93
2019-04-22T17:32:58.732Z,101159.78
2019-04-22T17:35:30.100Z,101169.69
2019-04-22T17:38:14.263Z,101169.57
2019-04-22T17:40:51.245Z,101175.24
2019-04-22T17:43:37.782Z,101168.44
2019-04-22T17:46:00.173Z,101171.53
2019-04-22T17:48:57.418Z,101177.69
2019-04-22T17:51:49.965Z,101175.67
2019-04-22T17:54:02.865Z,101179.95
2019-04-22T17:56:39.146Z,101190.91
2019-04-22T17:59:10.408Z,101190.41
2019-04-22T18:01:39.842Z,101190.42
2019-04-22T18:03:57.851Z,101184.98
2019-04-22T18:06:56.574Z,101189.77
2019-04-22T18:09:19.493Z,101197.47
2019-04-22T18:11:54.090Z,101200.55
2019-04-22T18:17:03.638Z,101199.87
2019-04-22T18:19:26.214Z,101202.28
2019-04-22T18:21:57.191Z,101203.98
2019-04-22T18:24:24.276Z,101209.28
2019-04-22T18:27:18.938Z,101212.19
2019-04-22T18:29:41.799Z,101213.05
2019-04-22T18:32:10.039Z,101215.78
2019-04-22T18:34:44.396Z,101214.07
2019-04-22T18:37:16.601Z,101216.13
2019-04-22T18:39:56.955Z,101216.80
2019-04-22T18:42:23.870Z,101209.98
2019-04-22T18:45:19.909Z,101218.34
2019-04-22T18:47:32.239Z,101219.87
2019-04-22T18:50:03.495Z,101217.82
2019-04-22T18:52:49.155Z,101222.59
2019-04-22T18:55:33.262Z,101224.13
2019-04-22T18:58:13.312Z,101225.81
2019-04-22T19:00:36.221Z,101224.96
2019-04-22T19:03:16.477Z,101230.39
2019-04-22T19:06:03.639Z,101234.81
2019-04-22T19:08:36.685Z,101234.28
2019-04-22T19:14:01.107Z,101230.33
2019-04-22T19:16:25.798Z,101236.09
2019-04-22T19:19:05.854Z,101244.60
2019-04-22T19:21:19.776Z,101241.38
2019-04-22T19:23:53.976Z,101236.77
2019-04-22T19:26:38.423Z,101233.52
2019-04-22T19:29:00.379Z,101236.20
2019-04-22T19:31:34.559Z,101238.94
2019-04-22T19:34:09.355Z,101240.78
2019-04-22T19:36:46.926Z,101230.75
2019-04-22T19:39:13.204Z,101240.11
2019-04-22T19:41:53.645Z,101235.50
2019-04-22T19:44:27.531Z,101240.29
2019-04-22T19:47:14.455Z,101243.86
2019-04-22T19:52:06.087Z,101240.29
2019-04-22T19:54:38.980Z,101241.80
2019-04-22T19:57:00.183Z,101241.13
2019-04-22T19:59:45.450Z,101245.52
2019-04-22T20:02:41.124Z,101249.91
2019-04-22T20:05:37.443Z,101252.62
2019-04-22T20:08:07.317Z,101257.73
2019-04-22T20:10:39.889Z,101258.22
2019-04-22T20:13:11.088Z,101252.91
2019-04-22T20:15:34.540Z,101253.39
2019-04-22T20:18:35.658Z,101251.97
2019-04-22T20:20:51.250Z,101256.73
2019-04-22T20:23:15.104Z,101254.83
2019-04-22T20:25:44.711Z,101253.44
2019-04-22T20:28:24.138Z,101260.78
2019-04-22T20:30:55.453Z,101253.25
2019-04-22T20:33:33.249Z,101249.06
2019-04-22T20:36:03.819Z,101248.55
2019-04-22T20:38:30.997Z,101246.95
2019-04-22T20:41:02.417Z,101254.98
2019-04-22T20:43:49.574Z,101251.70
2019-04-22T20:46:15.180Z,101256.45
2019-04-22T20:48:50.289Z,101255.98
2019-04-22T20:51:24.332Z,101252.08
2019-04-22T20:53:56.516Z,101249.78
2019-04-22T20:56:18.782Z,101239.70
2019-04-22T20:58:56.023Z,101244.27
2019-04-22T21:01:28.401Z,101239.84
2019-04-22T21:03:47.633Z,101245.73
2019-04-22T21:06:33.360Z,101241.48
2019-04-22T21:09:08.894Z,101240.91
2019-04-22T21:11:34.099Z,101243.48
2019-04-22T21:16:44.471Z,101246.86
2019-04-22T21:19:22.678Z,101241.61
2019-04-22T21:21:49.978Z,101238.34
2019-04-22T21:24:21.446Z,101241.19
2019-04-22T21:26:51.370Z,101249.45
2019-04-22T21:29:20.784Z,101248.38
2019-04-22T21:31:57.855Z,101251.45
2019-04-22T21:34:23.328Z,101250.14
2019-04-22T21:37:12.236Z,101258.53
2019-04-22T21:39:30.238Z,101255.08
2019-04-22T21:42:09.384Z,101258.81
2019-04-22T21:44:38.345Z,101256.63
2019-04-22T21:47:14.526Z,101255.35
2019-04-22T21:49:56.697Z,101257.92
2019-04-22T21:52:17.068Z,101258.38
2019-04-22T21:54:51.757Z,101256.95
2019-04-22T21:57:27.779Z,101259.44
2019-04-22T21:59:57.948Z,101264.06
2019-04-22T22:02:43.870Z,101260.48
2019-04-22T22:05:00.129Z,101259.08
2019-04-22T22:07:24.636Z,101261.38
2019-04-22T22:10:12.388Z,101257.76
2019-04-22T22:12:44.109Z,101255.55
2019-04-22T22:15:17.243Z,101260.17
2019-04-22T22:17:48.692Z,101257.76
2019-04-22T22:20:14.689Z,101253.48
2019-04-22T22:23:03.704Z,101250.91
2019-04-22T22:25:23.643Z,101251.81
2019-04-22T22:27:59.865Z,101248.19
2019-04-22T22:30:48.487Z,101251.27
2019-04-22T22:33:05.732Z,101247.03
2019-04-22T22:35:35.940Z,101249.40
2019-04-22T22:38:08.785Z,101246.48
2019-04-22T22:40:26.322Z,101233.93
2019-04-22T22:42:55.868Z,101241.84
2019-04-22T22:45:34.839Z,101236.02
2019-04-22T22:50:50.835Z,101236.47
2019-04-22T22:55:59.305Z,101234.56
2019-04-22T22:58:27.771Z,101236.95
2019-04-22T23:01:00.887Z,101230.41
2019-04-22T23:06:17.029Z,101231.91
2019-04-22T23:08:38.619Z,101239.97
2019-04-22T23:11:11.806Z,101236.89
2019-04-22T23:13:44.246Z,101231.00
2019-04-22T23:16:08.889Z,101234.28
2019-04-22T23:18:30.028Z,101226.93
2019-04-22T23:21:01.439Z,101227.23
2019-04-22T23:23:52.985Z,101223.56
2019-04-22T23:26:40.455Z,101223.36
2019-04-22T23:29:07.215Z,101227.69
2019-04-22T23:31:37.194Z,101223.41
2019-04-22T23:34:26.596Z,101219.33
2019-04-22T23:37:18.756Z,101221.62
2019-04-22T23:40:02.190Z,101220.92
2019-04-22T23:42:28.503Z,101208.34
2019-04-22T23:45:02.113Z,101212.14
2019-04-22T23:47:26.401Z,101211.71
2019-04-22T23:50:06.033Z,101206.73
2019-04-22T23:52:43.588Z,101208.89
2019-04-22T23:55:17.852Z,101208.53
2019-04-22T23:57:46.930Z,101205.66
